Etusivu
METAR-TAF:

METAR-TAF

Lentoasemat :

Murray, Kentucky, Yhdysvallat

Leveyspiiri: 36-39-52N, Pituuspiiri: 088-22-22W, korkeus merenpinnasta: 176 m

Tämänhetkinen sää

Tämä raportti tehtiin 25 minuuttia sitten, kello 04.55 UTC
Tuuli 7 kn pohjoisen/luoteesta
Lämpötila 10°C
Kosteus 82%
Ilmanpaine 1018 hPa
Näkyvyys: 16.1 km
Hajonneita pilviä 10000 ft:n korkeudessa

METAR: KCEY 050455Z AUTO 34007KT 10SM BKN100 10/07 A3007 RMK AO1

Aika: 00:20 (05:20 UTC)


TAF: puuttuu

Säähavainnot ja -ennusteet yli 4000 lentoasemalta (METAR- ja TAF-raportit).

Käytössä olevat sääasemat on merkitty karttaan keltaisilla ja punaisilla pisteillä.

Aseta hiiri pisteen päälle nähdäksesi sääaseman nimen.

Klikkaa sitten nähdäksesi säähavainnot ja -ennusteet.

Kartan vaihtaminen: klikkaa mustalla rastilla varustettuja vihreitä pisteitä, niin voit zoomata sisään; viivalla varustettua vihreää pistettä, niin voit zoomata ulos tai vihreitä nuolia, niin pääset viereisille kartoille.


METAR-TAF: